Time;durP1;ratioP1;P1;durP2;ratioP2;P2;SDS_P1;SDS_P2;PMS_P1;PMS_P2;Temp;Humidity;BMP_temperature;BMP_pressure;BME280_temperature;BME280_humidity;BME280_pressure;Samples;Min_cycle;Max_cycle;Signal;HPM_P1;HPM_P2
2022/01/07 00:00:25;;;;;;;7.39;6.82;;;;;;;5.28;73.50;100193.59;443217;119;922732;-73
2022/01/07 00:01:30;;;;;;;7.32;6.82;;;;;;;5.28;73.50;100201.70;440977;118;930557;-73
2022/01/07 00:02:34;;;;;;;7.43;6.83;;;;;;;5.26;73.55;100188.37;442175;118;922584;-72
2022/01/07 00:03:39;;;;;;;7.04;6.44;;;;;;;5.26;73.61;100188.37;442982;118;923037;-73
2022/01/07 00:04:42;;;;;;;6.84;6.34;;;;;;;5.27;73.64;100184.64;444139;117;922522;-72
2022/01/07 00:05:45;;;;;;;7.15;6.55;;;;;;;5.29;73.61;100184.46;443434;116;930516;-72
2022/01/07 00:06:49;;;;;;;6.53;6.03;;;;;;;5.29;73.61;100173.65;444002;118;922569;-72
2022/01/07 00:07:52;;;;;;;7.20;6.70;;;;;;;5.30;73.62;100170.73;444348;118;922570;-72
2022/01/07 00:08:56;;;;;;;6.71;6.14;;;;;;;5.31;73.70;100161.60;443700;119;930598;-73
2022/01/07 00:09:59;;;;;;;7.22;6.62;;;;;;;5.33;73.62;100154.15;444428;119;923056;-72
2022/01/07 00:11:02;;;;;;;6.76;6.26;;;;;;;5.34;73.75;100158.53;448759;117;922525;-72
2022/01/07 00:12:06;;;;;;;6.56;6.06;;;;;;;5.38;73.87;100167.92;442903;119;922672;-72
2022/01/07 00:13:10;;;;;;;6.81;6.30;;;;;;;5.42;73.78;100184.59;443029;119;922599;-72
2022/01/07 00:14:14;;;;;;;6.51;6.01;;;;;;;5.43;73.57;100186.27;442517;119;923009;-72
2022/01/07 00:15:17;;;;;;;7.06;6.53;;;;;;;5.42;73.43;100187.30;443750;118;930477;-72
2022/01/07 00:16:21;;;;;;;6.68;6.18;;;;;;;5.40;73.36;100190.18;442373;118;922952;-72
2022/01/07 00:17:24;;;;;;;6.67;6.12;;;;;;;5.38;73.40;100192.25;441622;120;922560;-72
2022/01/07 00:18:28;;;;;;;6.58;6.05;;;;;;;5.38;73.37;100191.42;449847;116;922600;-72
2022/01/07 00:19:31;;;;;;;5.28;4.92;;;;;;;5.35;73.28;100192.62;448732;116;923085;-72
2022/01/07 00:20:35;;;;;;;6.76;6.26;;;;;;;5.33;73.24;100200.10;448379;117;923036;-72
2022/01/07 00:21:39;;;;;;;6.18;5.71;;;;;;;5.30;73.25;100200.47;449932;117;922473;-72
2022/01/07 00:22:43;;;;;;;6.11;5.61;;;;;;;5.28;73.35;100197.13;449604;117;923668;-72
2022/01/07 00:23:47;;;;;;;5.88;5.45;;;;;;;5.26;73.35;100204.59;448692;116;923181;-71
2022/01/07 00:24:51;;;;;;;5.64;5.23;;;;;;;5.25;73.46;100202.91;449451;117;922514;-72
2022/01/07 00:25:54;;;;;;;5.68;5.22;;;;;;;5.24;73.50;100225.55;442951;119;922635;-72
2022/01/07 00:26:58;;;;;;;5.69;5.22;;;;;;;5.23;73.51;100221.20;442834;119;922599;-72
2022/01/07 00:28:04;;;;;;;5.42;5.05;;;;;;;5.19;73.52;100229.84;440693;118;922789;-73
2022/01/07 00:29:07;;;;;;;4.03;3.73;;;;;;;5.13;73.59;100231.44;441475;118;923047;-73
2022/01/07 00:30:13;;;;;;;4.01;3.71;;;;;;;5.06;73.59;100235.94;450043;116;922548;-72
2022/01/07 00:31:17;;;;;;;4.13;3.83;;;;;;;5.00;73.71;100239.38;442487;118;922944;-72
2022/01/07 00:32:20;;;;;;;2.84;2.64;;;;;;;4.94;73.88;100235.56;443962;117;922624;-73
2022/01/07 00:33:23;;;;;;;3.01;2.81;;;;;;;4.90;74.01;100236.13;444860;118;922587;-72
2022/01/07 00:34:27;;;;;;;2.66;2.46;;;;;;;4.87;74.04;100236.48;441167;119;922813;-72
2022/01/07 00:35:30;;;;;;;2.56;2.36;;;;;;;4.84;74.08;100235.02;443427;119;930274;-72
2022/01/07 00:36:34;;;;;;;2.46;2.26;;;;;;;4.80;74.14;100228.28;442601;119;922535;-73
2022/01/07 00:37:37;;;;;;;2.12;2.01;;;;;;;4.78;74.16;100224.95;442129;118;930378;-72
2022/01/07 00:38:41;;;;;;;2.29;2.12;;;;;;;4.76;74.12;100215.34;455547;114;922917;-72
2022/01/07 00:39:45;;;;;;;2.08;1.98;;;;;;;4.74;74.16;100222.81;456089;115;930420;-72
2022/01/07 00:40:49;;;;;;;2.31;2.11;;;;;;;4.71;73.91;100220.47;456706;115;930332;-73
2022/01/07 00:41:52;;;;;;;2.31;2.14;;;;;;;4.67;73.99;100222.72;455802;115;922779;-73
2022/01/07 00:42:56;;;;;;;2.37;2.22;;;;;;;4.64;74.24;100228.47;456485;115;922640;-73
2022/01/07 00:43:59;;;;;;;2.46;2.33;;;;;;;4.63;74.30;100223.27;456727;116;922429;-72
2022/01/07 00:45:04;;;;;;;2.39;2.21;;;;;;;4.63;74.44;100217.88;455568;114;930924;-71
2022/01/07 00:46:07;;;;;;;2.33;2.19;;;;;;;4.63;74.45;100224.12;455942;115;922864;-70
2022/01/07 00:47:11;;;;;;;2.80;2.60;;;;;;;4.63;74.55;100224.92;454741;115;922692;-73
2022/01/07 00:48:14;;;;;;;2.36;2.26;;;;;;;4.65;74.58;100229.31;456223;115;922890;-72
2022/01/07 00:49:21;;;;;;;2.27;2.10;;;;;;;4.66;74.52;100228.29;456896;114;922552;-73
2022/01/07 00:50:26;;;;;;;2.55;2.38;;;;;;;4.66;74.54;100230.99;454188;114;922912;-72
2022/01/07 00:51:29;;;;;;;2.21;2.11;;;;;;;4.66;74.58;100236.39;456662;113;923095;-72
2022/01/07 00:52:33;;;;;;;4.14;2.41;;;;;;;4.68;74.67;100237.90;455639;114;922408;-72
2022/01/07 00:53:36;;;;;;;3.19;2.41;;;;;;;4.69;74.68;100241.41;456932;115;922464;-73
2022/01/07 00:54:40;;;;;;;2.56;2.37;;;;;;;4.71;74.79;100242.08;455366;114;930613;-73
2022/01/07 00:55:43;;;;;;;2.74;2.48;;;;;;;4.74;74.93;100244.42;455126;115;923082;-72
2022/01/07 00:56:47;;;;;;;3.09;2.86;;;;;;;4.76;74.94;100237.80;454734;114;930441;-72
2022/01/07 00:57:50;;;;;;;2.66;2.43;;;;;;;4.78;74.93;100240.31;455885;115;930250;-72
2022/01/07 00:58:53;;;;;;;3.01;2.74;;;;;;;4.79;74.83;100225.80;455803;115;930345;-73
2022/01/07 00:59:57;;;;;;;3.18;2.92;;;;;;;4.78;75.02;100219.55;455863;116;922570;-72
2022/01/07 01:01:00;;;;;;;2.67;2.47;;;;;;;4.79;75.24;100226.64;455788;115;922349;-73
2022/01/07 01:02:04;;;;;;;2.46;2.27;;;;;;;4.81;75.39;100246.17;456853;116;930801;-72
2022/01/07 01:03:09;;;;;;;2.57;2.37;;;;;;;4.82;75.34;100247.02;454561;114;922829;-71
2022/01/07 01:04:13;;;;;;;2.61;2.41;;;;;;;4.81;75.25;100254.28;455813;114;922513;-73
2022/01/07 01:05:17;;;;;;;2.89;2.66;;;;;;;4.82;75.38;100249.72;455406;113;930471;-73
2022/01/07 01:06:22;;;;;;;3.04;2.78;;;;;;;4.83;75.42;100243.30;440865;118;922479;-72
2022/01/07 01:07:25;;;;;;;3.12;2.84;;;;;;;4.84;75.50;100242.28;456446;113;922472;-73
2022/01/07 01:08:29;;;;;;;2.89;2.60;;;;;;;4.87;75.59;100236.48;456468;115;923036;-72
2022/01/07 01:09:32;;;;;;;2.45;2.25;;;;;;;4.88;75.50;100239.02;455928;115;923109;-71
2022/01/07 01:10:35;;;;;;;2.92;2.71;;;;;;;4.89;75.30;100237.99;456153;116;922566;-72
2022/01/07 01:11:39;;;;;;;3.77;3.05;;;;;;;4.89;75.08;100247.95;456626;114;923011;-72
2022/01/07 01:12:44;;;;;;;3.52;3.22;;;;;;;4.88;75.05;100246.27;455805;115;923036;-72
2022/01/07 01:13:47;;;;;;;3.07;2.87;;;;;;;4.87;74.92;100250.00;454875;114;922523;-72
2022/01/07 01:14:51;;;;;;;3.38;3.10;;;;;;;4.86;74.81;100245.61;456208;114;922775;-72
2022/01/07 01:15:54;;;;;;;4.10;3.74;;;;;;;4.83;74.67;100260.34;455279;115;922731;-72
2022/01/07 01:16:59;;;;;;;5.51;5.08;;;;;;;4.81;74.59;100264.23;455248;116;930515;-72
2022/01/07 01:18:02;;;;;;;6.05;5.54;;;;;;;4.80;74.63;100265.26;456439;114;922840;-73
2022/01/07 01:19:06;;;;;;;5.16;4.65;;;;;;;4.79;74.64;100261.75;456839;115;922670;-72
2022/01/07 01:20:12;;;;;;;7.25;6.41;;;;;;;4.78;74.72;100259.22;454946;115;922953;-71
2022/01/07 01:21:15;;;;;;;7.49;6.80;;;;;;;4.80;74.85;100255.30;455843;114;922734;-72
2022/01/07 01:22:19;;;;;;;6.66;5.96;;;;;;;4.82;74.86;100253.26;455972;115;922974;-71
2022/01/07 01:23:22;;;;;;;6.11;5.54;;;;;;;4.83;74.89;100251.40;455132;114;922577;-72
2022/01/07 01:24:25;;;;;;;5.42;4.94;;;;;;;4.87;74.87;100258.09;455356;115;922742;-72
2022/01/07 01:25:29;;;;;;;4.86;4.41;;;;;;;4.88;74.81;100263.33;455521;114;922897;-73
2022/01/07 01:26:32;;;;;;;4.66;4.31;;;;;;;4.89;74.64;100264.17;456352;114;922662;-73
2022/01/07 01:27:40;;;;;;;3.33;3.10;;;;;;;4.89;74.64;100270.41;456526;114;922999;-72
2022/01/07 01:28:43;;;;;;;3.31;3.07;;;;;;;4.89;74.20;100272.27;456094;114;922888;-73
2022/01/07 01:29:46;;;;;;;3.26;3.01;;;;;;;4.89;74.20;100272.27;455834;114;922671;-72
2022/01/07 01:30:50;;;;;;;2.74;2.54;;;;;;;4.87;74.19;100283.25;456023;114;922592;-72
2022/01/07 01:31:54;;;;;;;2.97;2.77;;;;;;;4.84;74.16;100289.03;456094;113;922980;-72
2022/01/07 01:32:57;;;;;;;2.82;2.62;;;;;;;4.83;74.17;100283.81;456353;114;922580;-72
2022/01/07 01:34:00;;;;;;;2.36;2.16;;;;;;;4.82;74.16;100287.53;440966;118;922695;-72
2022/01/07 01:35:06;;;;;;;2.40;2.20;;;;;;;4.82;74.08;100282.13;455289;115;922640;-72
2022/01/07 01:36:10;;;;;;;2.47;2.33;;;;;;;4.78;74.11;100267.33;456395;113;922673;-73
2022/01/07 01:37:14;;;;;;;2.33;2.17;;;;;;;4.77;74.21;100269.19;455947;116;922607;-73
2022/01/07 01:38:17;;;;;;;2.51;2.30;;;;;;;4.76;74.29;100270.20;447507;116;930474;-72
2022/01/07 01:39:21;;;;;;;2.77;2.59;;;;;;;4.77;74.47;100266.48;449557;115;922882;-73
2022/01/07 01:40:25;;;;;;;3.22;2.61;;;;;;;4.80;74.48;100273.36;447719;115;922542;-73
2022/01/07 01:41:28;;;;;;;2.93;2.73;;;;;;;4.80;74.38;100259.86;445413;115;922718;-73
2022/01/07 01:42:32;;;;;;;2.49;1.92;;;;;;;4.78;74.15;100261.92;445028;116;923316;-72
2022/01/07 01:43:35;;;;;;;2.95;2.67;;;;;;;4.76;74.17;100253.16;447611;116;928190;-73
2022/01/07 01:44:39;;;;;;;2.25;2.13;;;;;;;4.75;74.12;100256.88;439255;118;922628;-73
2022/01/07 01:45:42;;;;;;;2.33;2.17;;;;;;;4.72;74.13;100252.70;431108;120;923119;-73
2022/01/07 01:46:46;;;;;;;2.39;2.23;;;;;;;4.70;74.22;100243.94;436931;119;930574;-72
2022/01/07 01:47:49;;;;;;;2.26;2.09;;;;;;;4.71;74.23;100250.17;439180;118;922624;-72
2022/01/07 01:48:53;;;;;;;2.07;1.97;;;;;;;4.69;74.14;100255.75;439101;118;922586;-72
2022/01/07 01:49:56;;;;;;;2.27;1.99;;;;;;;4.68;73.94;100261.36;439556;118;922715;-73
2022/01/07 01:51:00;;;;;;;2.27;2.14;;;;;;;4.65;73.87;100267.95;440025;118;923535;-73
2022/01/07 01:52:04;;;;;;;2.03;1.89;;;;;;;4.61;73.88;100267.50;439892;118;930349;-71
2022/01/07 01:53:07;;;;;;;2.18;2.00;;;;;;;4.59;73.87;100263.29;439433;118;922650;-71
2022/01/07 01:54:11;;;;;;;2.09;1.99;;;;;;;4.58;73.97;100272.41;440379;118;922804;-73
2022/01/07 01:55:16;;;;;;;1.98;1.87;;;;;;;4.58;73.95;100275.11;440069;118;922635;-73
2022/01/07 01:56:21;;;;;;;1.96;1.84;;;;;;;4.57;73.92;100278.85;439997;118;930390;-73
2022/01/07 01:57:25;;;;;;;2.16;2.06;;;;;;;4.53;73.65;100280.22;441260;118;922590;-72
2022/01/07 01:58:28;;;;;;;2.17;1.99;;;;;;;4.49;73.64;100279.76;440721;118;923126;-72
2022/01/07 01:59:32;;;;;;;2.01;1.87;;;;;;;4.45;73.51;100283.01;441124;118;922653;-72
2022/01/07 02:00:36;;;;;;;2.09;1.99;;;;;;;4.38;73.55;100288.30;440532;118;922680;-72
2022/01/07 02:01:40;;;;;;;2.29;2.19;;;;;;;4.34;73.66;100286.98;441545;118;922886;-72
2022/01/07 02:02:44;;;;;;;2.21;2.03;;;;;;;4.32;73.82;100285.47;434530;120;922571;-72
2022/01/07 02:03:47;;;;;;;2.38;2.18;;;;;;;4.30;73.87;100301.03;435393;120;922765;-71
2022/01/07 02:04:51;;;;;;;2.81;2.61;;;;;;;4.27;73.96;100302.22;434516;120;930531;-72
2022/01/07 02:05:54;;;;;;;2.52;2.33;;;;;;;4.23;73.91;100300.91;434737;120;930529;-72
2022/01/07 02:06:58;;;;;;;2.60;2.40;;;;;;;4.19;73.88;100295.02;434726;120;922644;-72
2022/01/07 02:08:01;;;;;;;3.07;2.79;;;;;;;4.16;73.96;100302.64;439594;118;930629;-71
2022/01/07 02:09:05;;;;;;;3.04;2.49;;;;;;;4.11;74.23;100305.05;428438;121;922697;-71
2022/01/07 02:10:12;;;;;;;2.78;2.58;;;;;;;4.09;74.40;100307.06;434579;120;930380;-71
2022/01/07 02:11:16;;;;;;;2.53;2.36;;;;;;;4.08;74.47;100308.11;434673;120;923022;-72
2022/01/07 02:12:19;;;;;;;2.81;2.59;;;;;;;4.04;74.52;100307.61;439434;118;922749;-72
2022/01/07 02:13:22;;;;;;;2.91;2.71;;;;;;;3.99;74.59;100301.08;441688;120;922831;-72
2022/01/07 02:14:25;;;;;;;2.65;2.45;;;;;;;3.99;74.59;100301.08;439249;118;922847;-72
2022/01/07 02:15:29;;;;;;;3.10;2.90;;;;;;;3.95;74.79;100311.39;439202;118;923252;-72
2022/01/07 02:16:32;;;;;;;3.44;3.09;;;;;;;3.91;74.83;100311.94;441092;117;922797;-72
2022/01/07 02:17:37;;;;;;;4.12;3.79;;;;;;;3.88;75.10;100318.52;435626;120;922628;-71
2022/01/07 02:18:42;;;;;;;3.70;3.40;;;;;;;3.89;75.28;100316.66;434627;120;922744;-71
2022/01/07 02:19:46;;;;;;;4.20;3.73;;;;;;;3.88;75.29;100320.37;434247;120;922643;-71
2022/01/07 02:20:49;;;;;;;4.28;3.87;;;;;;;3.87;75.37;100321.38;434593;120;922441;-72
2022/01/07 02:21:52;;;;;;;4.63;4.28;;;;;;;3.85;75.36;100323.44;434788;120;930494;-72
2022/01/07 02:22:57;;;;;;;4.98;4.46;;;;;;;3.84;75.44;100321.75;434814;120;922675;-73
2022/01/07 02:24:02;;;;;;;5.14;4.58;;;;;;;3.82;75.36;100318.37;434436;120;922806;-72
2022/01/07 02:25:06;;;;;;;5.19;4.48;;;;;;;3.77;75.43;100322.45;433716;120;922736;-71
2022/01/07 02:26:12;;;;;;;4.96;4.48;;;;;;;3.76;75.56;100318.07;433631;121;922645;-71
2022/01/07 02:27:16;;;;;;;5.43;4.93;;;;;;;3.76;75.71;100318.07;436087;119;923149;-72
2022/01/07 02:28:20;;;;;;;9.45;8.72;;;;;;;3.76;75.77;100323.47;438072;118;922861;-72
2022/01/07 02:29:23;;;;;;;10.66;9.68;;;;;;;3.76;75.80;100318.07;432533;119;923281;-72
2022/01/07 02:30:29;;;;;;;9.09;8.39;;;;;;;3.78;75.97;100309.81;431233;119;922681;-72
2022/01/07 02:31:32;;;;;;;7.75;7.16;;;;;;;3.81;76.02;100305.91;437494;118;931110;-72
2022/01/07 02:32:36;;;;;;;5.49;5.09;;;;;;;3.81;75.93;100300.52;441086;118;923051;-73
2022/01/07 02:33:39;;;;;;;5.91;5.51;;;;;;;3.84;76.03;100300.17;438233;118;922631;-72
2022/01/07 02:34:44;;;;;;;7.49;6.98;;;;;;;3.84;75.95;100295.63;439600;118;930746;-71
2022/01/07 02:35:48;;;;;;;7.25;6.75;;;;;;;3.84;75.94;100294.78;438217;118;930651;-72
2022/01/07 02:36:51;;;;;;;4.36;4.06;;;;;;;3.85;75.80;100300.00;439947;118;922547;-72
2022/01/07 02:37:55;;;;;;;5.51;5.11;;;;;;;3.83;75.74;100301.19;439257;118;922594;-72
2022/01/07 02:38:58;;;;;;;4.72;4.38;;;;;;;3.82;75.84;100303.04;455568;115;922757;-72
2022/01/07 02:40:02;;;;;;;4.78;4.47;;;;;;;3.82;75.87;100300.34;456612;116;923354;-73
2022/01/07 02:41:06;;;;;;;4.05;3.75;;;;;;;3.83;75.89;100304.72;456330;113;922425;-73
2022/01/07 02:42:09;;;;;;;4.46;4.16;;;;;;;3.83;75.81;100307.42;456156;114;922611;-71
2022/01/07 02:43:12;;;;;;;4.67;4.28;;;;;;;3.82;75.66;100302.20;456013;115;924114;-72
2022/01/07 02:44:16;;;;;;;4.77;4.37;;;;;;;3.80;75.63;100297.00;455979;114;922724;-71
2022/01/07 02:45:19;;;;;;;4.59;4.09;;;;;;;3.78;75.62;100296.33;455677;114;923166;-73
2022/01/07 02:46:23;;;;;;;4.00;3.69;;;;;;;3.76;75.55;100299.20;455688;114;922589;-71
2022/01/07 02:47:35;;;;;;;4.42;4.03;;;;;;;3.75;75.64;100286.73;455386;115;922577;-72
2022/01/07 02:48:34;;;;;;;4.22;3.90;;;;;;;3.75;75.70;100297.52;438354;118;930719;-71
2022/01/07 02:49:37;;;;;;;4.15;3.79;;;;;;;3.75;75.77;100292.12;456368;114;922653;-71
2022/01/07 02:50:41;;;;;;;4.11;3.81;;;;;;;3.76;75.71;100299.20;455516;114;922634;-72
2022/01/07 02:51:45;;;;;;;4.29;3.99;;;;;;;3.77;75.69;100294.64;456143;113;922554;-73
2022/01/07 02:52:49;;;;;;;4.03;3.73;;;;;;;3.78;75.67;100290.94;455459;116;922787;-71
2022/01/07 02:53:53;;;;;;;3.73;3.43;;;;;;;3.80;75.56;100294.30;455287;114;922688;-72
2022/01/07 02:54:56;;;;;;;4.74;4.34;;;;;;;3.80;75.55;100298.86;455874;113;922497;-72
2022/01/07 02:55:59;;;;;;;4.29;3.99;;;;;;;3.80;75.52;100313.19;455529;115;922547;-72
2022/01/07 02:57:03;;;;;;;4.20;3.90;;;;;;;3.80;75.50;100323.12;455885;114;922513;-73
2022/01/07 02:58:06;;;;;;;4.85;4.45;;;;;;;3.80;75.44;100315.03;441286;117;923341;-73
2022/01/07 02:59:10;;;;;;;4.37;3.99;;;;;;;3.80;75.48;100325.83;443537;116;930598;-73
2022/01/07 03:00:16;;;;;;;4.87;4.47;;;;;;;3.82;75.45;100318.37;455165;114;930546;-73
2022/01/07 03:01:20;;;;;;;4.58;4.13;;;;;;;3.80;75.34;100315.88;454872;114;922762;-71
2022/01/07 03:02:23;;;;;;;3.88;3.58;;;;;;;3.81;75.21;100316.69;455956;114;923099;-72
2022/01/07 03:03:27;;;;;;;4.17;3.86;;;;;;;3.80;75.22;100318.58;455816;114;922677;-73
2022/01/07 03:04:30;;;;;;;3.56;3.26;;;;;;;3.79;75.09;100314.20;455748;115;922522;-72
2022/01/07 03:05:33;;;;;;;3.19;2.99;;;;;;;3.77;74.93;100317.06;456397;114;922562;-71
2022/01/07 03:06:37;;;;;;;3.06;2.74;;;;;;;3.76;74.91;100318.07;455835;114;922606;-72
2022/01/07 03:07:42;;;;;;;2.79;2.59;;;;;;;3.74;74.77;100322.82;455436;115;930562;-72
2022/01/07 03:08:46;;;;;;;3.06;2.80;;;;;;;3.73;74.66;100325.69;455764;113;922704;-72
2022/01/07 03:09:49;;;;;;;3.05;2.78;;;;;;;3.70;74.65;100324.17;455524;114;922528;-71
2022/01/07 03:10:52;;;;;;;2.91;2.37;;;;;;;3.67;74.56;100321.84;456217;116;923331;-71
2022/01/07 03:11:55;;;;;;;3.33;2.49;;;;;;;3.65;74.53;100321.16;455758;114;922713;-72
2022/01/07 03:13:00;;;;;;;2.79;2.59;;;;;;;3.61;74.40;100314.45;455844;114;922694;-72
2022/01/07 03:14:03;;;;;;;3.07;2.73;;;;;;;3.60;74.44;100310.08;455453;115;922726;-73
2022/01/07 03:15:08;;;;;;;2.52;2.30;;;;;;;3.59;74.49;100308.39;456021;114;922963;-71
2022/01/07 03:16:11;;;;;;;2.99;2.74;;;;;;;3.58;74.63;100311.28;456147;116;922516;-71
2022/01/07 03:17:15;;;;;;;2.56;2.37;;;;;;;3.59;74.62;100312.94;455529;114;930427;-71
2022/01/07 03:18:18;;;;;;;3.51;3.05;;;;;;;3.60;74.53;100325.41;455797;114;930469;-72
2022/01/07 03:19:22;;;;;;;2.90;2.59;;;;;;;3.58;74.53;100327.45;455317;116;930667;-72
2022/01/07 03:20:25;;;;;;;3.59;3.29;;;;;;;3.56;74.51;100329.48;456530;115;922418;-72
2022/01/07 03:21:29;;;;;;;3.92;3.52;;;;;;;3.56;74.57;100332.17;454791;114;930728;-72
2022/01/07 03:22:32;;;;;;;4.73;4.18;;;;;;;3.55;74.65;100325.09;455663;114;923687;-72
2022/01/07 03:23:40;;;;;;;4.14;3.84;;;;;;;3.55;74.71;100331.33;455419;115;922890;-72
2022/01/07 03:24:43;;;;;;;4.81;4.41;;;;;;;3.57;74.73;100333.86;455879;114;922620;-72
2022/01/07 03:25:47;;;;;;;4.26;3.90;;;;;;;3.57;74.72;100337.40;456553;115;922972;-71
2022/01/07 03:26:50;;;;;;;4.29;3.91;;;;;;;3.56;74.72;100330.32;455716;115;923429;-72
2022/01/07 03:27:54;;;;;;;3.99;3.64;;;;;;;3.57;74.73;100329.31;456014;114;922583;-72
2022/01/07 03:28:57;;;;;;;4.00;3.70;;;;;;;3.57;74.71;100340.09;456752;114;922569;-72
2022/01/07 03:30:00;;;;;;;4.45;4.05;;;;;;;3.58;74.79;100341.78;455181;113;922607;-71
2022/01/07 03:31:04;;;;;;;4.25;3.94;;;;;;;3.59;74.80;100335.34;455204;113;922589;-71
2022/01/07 03:32:07;;;;;;;5.03;4.62;;;;;;;3.60;74.80;100346.97;455230;115;930479;-73
2022/01/07 03:33:11;;;;;;;5.52;4.90;;;;;;;3.61;74.76;100336.02;455664;114;930558;-73
2022/01/07 03:34:14;;;;;;;5.28;4.78;;;;;;;3.61;74.76;100337.88;456023;116;930593;-72
2022/01/07 03:35:17;;;;;;;5.45;4.97;;;;;;;3.61;74.73;100346.80;441003;118;922993;-73
2022/01/07 03:36:22;;;;;;;4.28;3.88;;;;;;;3.61;74.69;100343.27;454580;114;923472;-72
2022/01/07 03:37:26;;;;;;;5.24;4.74;;;;;;;3.60;74.77;100342.42;456019;114;922618;-72
2022/01/07 03:38:29;;;;;;;5.46;5.02;;;;;;;3.63;74.71;100346.64;454286;114;923310;-72
2022/01/07 03:39:32;;;;;;;5.61;5.11;;;;;;;3.62;74.69;100340.41;447744;116;922757;-72
2022/01/07 03:40:36;;;;;;;5.29;4.80;;;;;;;3.64;74.70;100349.14;448596;116;922905;-72
2022/01/07 03:41:39;;;;;;;4.91;4.51;;;;;;;3.66;74.71;100351.66;448605;118;922686;-72
2022/01/07 03:42:44;;;;;;;5.89;5.45;;;;;;;3.66;74.72;100357.06;448741;116;930581;-72
2022/01/07 03:43:47;;;;;;;5.54;5.09;;;;;;;3.69;74.69;100365.63;448243;116;922838;-72
2022/01/07 03:44:50;;;;;;;5.59;5.09;;;;;;;3.71;74.64;100366.30;448505;116;922994;-72
2022/01/07 03:45:53;;;;;;;5.76;5.34;;;;;;;3.71;74.61;100366.30;448534;116;922956;-72
2022/01/07 03:46:57;;;;;;;5.46;5.06;;;;;;;3.73;74.64;100369.67;448477;116;923050;-72
2022/01/07 03:48:00;;;;;;;5.39;4.99;;;;;;;3.73;74.62;100368.83;448063;116;930573;-72
2022/01/07 03:49:04;;;;;;;4.89;4.49;;;;;;;3.74;74.52;100375.91;448320;116;922588;-73
2022/01/07 03:50:10;;;;;;;5.05;4.66;;;;;;;3.74;74.60;100376.75;448078;116;930671;-72
2022/01/07 03:51:13;;;;;;;5.19;4.79;;;;;;;3.76;74.59;100374.70;448409;116;922552;-72
2022/01/07 03:52:17;;;;;;;5.04;4.68;;;;;;;3.77;74.64;100376.38;448963;116;922684;-72
2022/01/07 03:53:24;;;;;;;4.60;4.29;;;;;;;3.82;74.69;100375.01;447629;116;930751;-72
2022/01/07 03:54:25;;;;;;;5.35;4.95;;;;;;;3.84;74.64;100372.98;448365;116;930591;-72
2022/01/07 03:55:30;;;;;;;5.45;5.03;;;;;;;3.88;74.62;100374.30;448315;117;923009;-72
2022/01/07 03:56:34;;;;;;;5.61;5.21;;;;;;;3.89;74.60;100376.84;448801;118;923011;-72
2022/01/07 03:57:37;;;;;;;5.28;4.88;;;;;;;3.90;74.48;100378.52;447806;116;930754;-72
2022/01/07 03:58:41;;;;;;;9.15;5.99;;;;;;;3.90;74.42;100380.38;448171;116;922641;-72
2022/01/07 03:59:44;;;;;;;6.06;5.66;;;;;;;3.89;74.33;100384.08;448010;117;930595;-73
2022/01/07 04:00:48;;;;;;;6.04;5.56;;;;;;;3.86;74.27;100385.27;448280;118;923523;-73
2022/01/07 04:01:52;;;;;;;6.39;5.91;;;;;;;;;;447617;116;922817;-73
2022/01/07 04:02:55;;;;;;;6.14;5.64;;;;;;;3.83;74.32;100376.70;447477;116;930596;-71
2022/01/07 04:03:58;;;;;;;5.85;5.42;;;;;;;3.80;74.33;100383.30;447901;116;922891;-72
2022/01/07 04:05:02;;;;;;;6.69;6.20;;;;;;;3.81;74.44;100376.02;448915;118;922570;-72
2022/01/07 04:06:06;;;;;;;6.85;6.31;;;;;;;3.81;74.44;100381.41;448545;116;923154;-72
2022/01/07 04:07:09;;;;;;;7.10;6.54;;;;;;;3.80;74.43;100386.00;447710;117;922668;-72
2022/01/07 04:08:12;;;;;;;5.58;5.13;;;;;;;3.80;74.42;100382.45;448082;116;922625;-72
2022/01/07 04:09:16;;;;;;;6.65;5.67;;;;;;;3.78;74.35;100377.23;448477;118;922606;-71
2022/01/07 04:10:20;;;;;;;5.91;5.45;;;;;;;3.76;74.39;100377.39;448860;118;922598;-71
2022/01/07 04:11:24;;;;;;;5.40;5.00;;;;;;;3.75;74.44;100373.02;448484;116;922537;-74
2022/01/07 04:12:29;;;;;;;5.55;5.11;;;;;;;3.75;74.43;100377.56;447078;117;931011;-72
2022/01/07 04:13:32;;;;;;;5.67;5.25;;;;;;;3.75;74.45;100381.10;448712;116;922475;-74
2022/01/07 04:14:36;;;;;;;5.58;5.17;;;;;;;3.76;74.43;100379.25;448216;116;922875;-72
2022/01/07 04:15:39;;;;;;;5.86;5.39;;;;;;;3.76;74.46;100381.95;448280;116;922775;-72
2022/01/07 04:16:42;;;;;;;5.61;5.21;;;;;;;3.76;74.43;100382.78;448365;116;922776;-71
2022/01/07 04:17:48;;;;;;;5.54;5.18;;;;;;;3.76;74.42;100381.95;448290;117;922649;-72
2022/01/07 04:18:51;;;;;;;5.61;5.24;;;;;;;3.76;74.41;100393.58;448154;116;930529;-72
2022/01/07 04:19:55;;;;;;;5.85;5.39;;;;;;;3.76;74.30;100390.03;448342;116;922725;-71
2022/01/07 04:20:58;;;;;;;6.41;5.90;;;;;;;3.72;74.24;100397.65;447789;116;922848;-72
2022/01/07 04:22:01;;;;;;;6.10;5.65;;;;;;;3.69;74.21;100397.98;448123;117;923107;-71
2022/01/07 04:23:07;;;;;;;5.49;5.09;;;;;;;3.67;74.23;100396.48;448575;118;922716;-72
2022/01/07 04:24:10;;;;;;;5.62;5.22;;;;;;;3.63;74.29;100398.70;447729;116;923206;-71
2022/01/07 04:25:18;;;;;;;5.74;5.24;;;;;;;3.60;74.26;100403.59;447574;116;922839;-71
2022/01/07 04:26:22;;;;;;;5.73;5.25;;;;;;;3.57;74.27;100409.34;448082;116;923096;-71
2022/01/07 04:27:26;;;;;;;5.99;5.49;;;;;;;3.52;74.23;100400.94;448701;118;922712;-71
2022/01/07 04:28:29;;;;;;;5.62;5.21;;;;;;;3.47;74.25;100403.31;448378;116;922640;-71
2022/01/07 04:29:32;;;;;;;5.81;5.41;;;;;;;3.43;74.36;100402.80;448204;117;930570;-71
2022/01/07 04:30:39;;;;;;;5.92;5.43;;;;;;;3.39;74.49;100392.55;447204;116;922669;-71
2022/01/07 04:31:42;;;;;;;5.00;4.64;;;;;;;3.36;74.58;100399.14;448809;118;922728;-71
2022/01/07 04:32:46;;;;;;;5.54;5.14;;;;;;;3.33;74.58;100404.86;448792;116;922661;-72
2022/01/07 04:33:50;;;;;;;6.08;5.58;;;;;;;3.29;74.65;100406.22;448143;117;922600;-71
2022/01/07 04:34:53;;;;;;;5.39;4.98;;;;;;;3.24;74.76;100405.90;448379;116;930804;-72
2022/01/07 04:35:56;;;;;;;6.03;5.62;;;;;;;3.21;74.88;100398.14;448768;118;930638;-72
2022/01/07 04:37:00;;;;;;;5.45;5.05;;;;;;;3.18;74.91;100403.89;448500;117;923642;-72
2022/01/07 04:38:05;;;;;;;5.04;4.64;;;;;;;3.16;75.09;100409.44;448165;116;930485;-72
2022/01/07 04:39:08;;;;;;;5.86;5.40;;;;;;;3.14;75.13;100408.75;448915;116;923040;-73
2022/01/07 04:40:14;;;;;;;5.44;5.01;;;;;;;3.12;75.20;100408.11;450084;117;923409;-72
2022/01/07 04:41:18;;;;;;;5.43;5.01;;;;;;;3.11;75.19;100413.66;449901;116;930452;-71
2022/01/07 04:42:21;;;;;;;5.08;4.69;;;;;;;3.08;75.18;100417.55;449597;116;922642;-72
2022/01/07 04:43:24;;;;;;;5.19;4.79;;;;;;;3.06;75.19;100416.86;449017;117;922464;-72
2022/01/07 04:44:28;;;;;;;5.88;5.38;;;;;;;3.05;75.29;100427.80;449492;116;922554;-71
2022/01/07 04:45:32;;;;;;;5.01;4.62;;;;;;;3.04;75.42;100426.11;449519;117;930662;-72
2022/01/07 04:46:35;;;;;;;5.44;5.05;;;;;;;3.02;75.44;100420.92;449183;117;922587;-71
2022/01/07 04:47:40;;;;;;;5.78;5.36;;;;;;;3.02;75.44;100417.38;449062;116;922517;-72
2022/01/07 04:48:43;;;;;;;5.08;4.68;;;;;;;3.02;75.49;100426.31;449545;117;922784;-71
2022/01/07 04:49:46;;;;;;;4.53;4.19;;;;;;;3.02;75.60;100429.00;449671;117;922573;-72
2022/01/07 04:50:50;;;;;;;4.96;4.56;;;;;;;3.03;75.63;100430.69;449703;117;923011;-72
2022/01/07 04:51:53;;;;;;;5.35;4.95;;;;;;;3.04;75.63;100432.34;449728;116;922656;-70
2022/01/07 04:52:57;;;;;;;4.57;4.17;;;;;;;3.04;75.62;100437.73;449146;116;922556;-72
2022/01/07 04:54:00;;;;;;;5.40;4.99;;;;;;;3.04;75.62;100442.27;449534;117;922653;-71
2022/01/07 04:55:05;;;;;;;4.79;4.39;;;;;;;3.03;75.65;100433.38;450223;117;922609;-71
2022/01/07 04:56:09;;;;;;;4.81;4.44;;;;;;;3.03;75.64;100432.54;449327;116;922655;-72
2022/01/07 04:57:12;;;;;;;5.36;4.98;;;;;;;3.03;75.72;100435.23;449842;116;922632;-73